Time;durP1;ratioP1;P1;durP2;ratioP2;P2;SDS_P1;SDS_P2;PMS_P1;PMS_P2;Temp;Humidity;BMP_temperature;BMP_pressure;BME280_temperature;BME280_humidity;BME280_pressure;Samples;Min_cycle;Max_cycle;Signal;HPM_P1;HPM_P2
2023/08/22 00:03:29;;;;;;;4.10;1.85;;;30.90;95.50;;;;;;10061947;28;20028;-71
2023/08/22 00:08:20;;;;;;;7.35;2.70;;;30.80;95.60;;;;;;10058907;28;20103;-71
2023/08/22 00:13:10;;;;;;;2.15;1.95;;;30.70;95.60;;;;;;10073424;28;20482;-71
2023/08/22 00:18:02;;;;;;;2.20;1.95;;;30.60;95.70;;;;;;10101167;28;20082;-71
2023/08/22 00:22:52;;;;;;;4.72;2.20;;;30.50;95.70;;;;;;10081426;28;20078;-71
2023/08/22 00:27:43;;;;;;;2.55;1.73;;;30.50;96.00;;;;;;10100774;28;20458;-71
2023/08/22 00:32:34;;;;;;;2.67;1.85;;;30.40;95.80;;;;;;10100211;28;20064;-71
2023/08/22 00:37:25;;;;;;;3.22;2.10;;;30.40;95.70;;;;;;10097485;28;20037;-71
2023/08/22 00:42:16;;;;;;;4.38;2.10;;;30.40;95.60;;;;;;10103577;28;20024;-71
2023/08/22 00:47:07;;;;;;;1.73;1.48;;;30.30;95.70;;;;;;10081787;28;20572;-71
2023/08/22 00:52:00;;;;;;;2.30;1.70;;;30.40;95.60;;;;;;10100375;28;20108;-71
2023/08/22 00:56:51;;;;;;;2.10;1.65;;;30.30;95.70;;;;;;10089003;28;20434;-70
2023/08/22 01:01:41;;;;;;;3.75;1.85;;;30.30;95.60;;;;;;10099715;28;20079;-70
2023/08/22 01:06:47;;;;;;;1.90;1.73;;;30.30;95.40;;;;;;10099238;28;20214;-70
2023/08/22 01:11:43;;;;;;;2.80;1.60;;;30.20;95.30;;;;;;10099361;28;20113;-71
2023/08/22 01:16:34;;;;;;;2.53;1.73;;;30.00;95.80;;;;;;10100183;28;20560;-70
2023/08/22 01:21:25;;;;;;;3.97;2.00;;;29.90;95.80;;;;;;10080684;28;20029;-70
2023/08/22 01:26:16;;;;;;;2.50;1.70;;;30.00;95.60;;;;;;10081916;28;20033;-70
2023/08/22 01:31:25;;;;;;;10.70;3.15;;;29.90;95.60;;;;;;10090364;28;20528;-71
2023/08/22 01:36:18;;;;;;;2.92;1.50;;;29.80;95.90;;;;;;10092892;28;20029;-71
2023/08/22 01:41:10;;;;;;;3.97;1.80;;;29.80;95.90;;;;;;10099149;28;20027;-71
2023/08/22 01:46:01;;;;;;;4.93;2.08;;;29.90;95.80;;;;;;10098146;28;20089;-71
2023/08/22 01:50:51;;;;;;;5.00;2.17;;;29.80;96.00;;;;;;10097580;28;20032;-70
2023/08/22 01:55:42;;;;;;;3.50;1.40;;;29.70;96.00;;;;;;10095861;28;20033;-70
2023/08/22 02:00:33;;;;;;;2.75;1.92;;;29.60;96.10;;;;;;10096995;28;20083;-70
2023/08/22 02:05:24;;;;;;;5.45;2.22;;;29.50;96.20;;;;;;10097916;28;20029;-70
2023/08/22 02:10:14;;;;;;;4.57;1.90;;;29.50;96.20;;;;;;10097032;28;20033;-69
2023/08/22 02:15:07;;;;;;;3.47;1.77;;;29.40;96.30;;;;;;10097117;28;20041;-70
2023/08/22 02:19:57;;;;;;;4.03;1.60;;;29.30;96.40;;;;;;10079034;28;20048;-70
2023/08/22 02:24:48;;;;;;;2.75;1.85;;;29.20;96.50;;;;;;10097789;28;20231;-70
2023/08/22 02:29:38;;;;;;;2.30;1.80;;;29.30;96.50;;;;;;10091550;28;20037;-70
2023/08/22 02:34:30;;;;;;;3.42;2.05;;;29.20;96.50;;;;;;10096950;28;20029;-70
2023/08/22 02:39:20;;;;;;;2.28;1.77;;;29.20;96.60;;;;;;10079456;28;20089;-70
2023/08/22 02:44:12;;;;;;;4.30;1.63;;;29.10;96.60;;;;;;10098726;28;20025;-70
2023/08/22 02:49:02;;;;;;;1.95;1.70;;;29.00;96.70;;;;;;10078198;28;20227;-71
2023/08/22 02:53:53;;;;;;;2.50;1.90;;;28.90;96.80;;;;;;10099399;28;20276;-70
2023/08/22 02:58:44;;;;;;;4.00;2.03;;;28.90;96.90;;;;;;10099535;28;20386;-70
2023/08/22 03:03:35;;;;;;;2.72;1.88;;;28.90;96.90;;;;;;10100872;28;20517;-70
2023/08/22 03:08:25;;;;;;;3.67;1.95;;;28.80;96.90;;;;;;10085873;28;20439;-70
2023/08/22 03:13:16;;;;;;;5.07;1.77;;;28.70;97.00;;;;;;10090495;28;20099;-71
2023/08/22 03:18:08;;;;;;;4.00;1.90;;;28.70;97.10;;;;;;10101687;28;20041;-70
2023/08/22 03:22:59;;;;;;;3.47;2.00;;;28.70;97.20;;;;;;10099604;28;20041;-71
2023/08/22 03:27:50;;;;;;;2.17;1.70;;;28.70;97.20;;;;;;10093357;28;20055;-71
2023/08/22 03:32:40;;;;;;;4.20;2.45;;;28.70;97.30;;;;;;10103237;28;20414;-71
2023/08/22 03:37:34;;;;;;;3.33;2.08;;;28.60;97.40;;;;;;10102555;28;20036;-71
2023/08/22 03:42:25;;;;;;;;;;;28.60;97.40;;;;;;10087617;28;20040;-70
2023/08/22 03:47:16;;;;;;;2.55;1.80;;;28.60;97.60;;;;;;10102494;28;19925;-71
2023/08/22 03:52:07;;;;;;;4.60;1.77;;;28.50;97.50;;;;;;10084540;28;20033;-71
2023/08/22 03:56:57;;;;;;;2.63;2.25;;;28.40;97.60;;;;;;10083751;28;20094;-71
2023/08/22 04:01:48;;;;;;;3.35;1.98;;;28.40;97.60;;;;;;10102203;28;20028;-69
2023/08/22 04:06:38;;;;;;;2.33;1.92;;;28.40;97.70;;;;;;10101577;28;20169;-69
2023/08/22 04:11:29;;;;;;;3.50;2.10;;;28.30;97.80;;;;;;10100807;28;20499;-69
2023/08/22 04:16:20;;;;;;;3.70;2.10;;;28.30;97.90;;;;;;10101992;28;20040;-69
2023/08/22 04:21:13;;;;;;;3.40;2.20;;;28.40;97.90;;;;;;10101117;28;20025;-69
2023/08/22 04:26:04;;;;;;;2.67;1.67;;;28.40;97.90;;;;;;10083389;28;20064;-69
2023/08/22 04:31:02;;;;;;;3.25;1.88;;;28.40;98.00;;;;;;10100817;28;20518;-70
2023/08/22 04:35:52;;;;;;;4.05;1.92;;;28.20;98.10;;;;;;10101003;28;20068;-70
2023/08/22 04:40:43;;;;;;;2.58;1.95;;;28.10;98.20;;;;;;10101866;28;20024;-70
2023/08/22 04:45:35;;;;;;;2.88;2.30;;;28.00;98.20;;;;;;10103039;28;20087;-70
2023/08/22 04:50:25;;;;;;;3.17;2.53;;;28.10;98.30;;;;;;10081261;28;20564;-69
2023/08/22 04:55:16;;;;;;;3.70;2.22;;;28.10;98.20;;;;;;10105306;28;20025;-70
2023/08/22 05:00:14;;;;;;;3.45;1.98;;;28.00;98.30;;;;;;10099412;28;20028;-69
2023/08/22 05:05:06;;;;;;;4.10;2.63;;;28.00;98.50;;;;;;10088682;28;20033;-70
2023/08/22 05:09:57;;;;;;;3.20;2.10;;;28.00;98.40;;;;;;10087774;28;20036;-70
2023/08/22 05:14:48;;;;;;;2.63;2.28;;;28.00;98.50;;;;;;10098127;28;20489;-70
2023/08/22 05:19:39;;;;;;;5.07;3.10;;;28.00;98.50;;;;;;10093909;28;20509;-70
2023/08/22 05:24:30;;;;;;;8.00;2.92;;;28.00;98.50;;;;;;10098030;28;20390;-70
2023/08/22 05:29:22;;;;;;;5.28;2.22;;;28.00;98.60;;;;;;10098705;28;20041;-70
2023/08/22 05:34:13;;;;;;;4.95;2.50;;;28.00;98.50;;;;;;10098703;28;20052;-70
2023/08/22 05:39:04;;;;;;;6.65;3.75;;;27.90;98.60;;;;;;10098011;28;20052;-71
2023/08/22 05:43:55;;;;;;;3.88;2.90;;;28.00;98.60;;;;;;10101059;28;20025;-72
2023/08/22 05:48:46;;;;;;;4.43;2.28;;;27.90;98.50;;;;;;10094444;28;20045;-70
2023/08/22 05:53:36;;;;;;;2.67;2.28;;;27.90;98.60;;;;;;10098600;28;20039;-70
2023/08/22 05:58:27;;;;;;;2.55;1.92;;;27.90;98.50;;;;;;10098349;28;20116;-70
2023/08/22 06:03:18;;;;;;;3.55;2.35;;;27.80;98.50;;;;;;10097526;28;20025;-70
2023/08/22 06:08:09;;;;;;;3.60;1.92;;;27.90;98.40;;;;;;10097119;28;20083;-70
2023/08/22 06:12:59;;;;;;;4.22;2.42;;;27.80;98.40;;;;;;10084730;28;20048;-70
2023/08/22 06:17:50;;;;;;;3.97;2.85;;;27.70;98.40;;;;;;10078975;28;20491;-69
2023/08/22 06:22:41;;;;;;;3.05;2.08;;;27.80;98.30;;;;;;10096435;28;20037;-69
2023/08/22 06:27:32;;;;;;;5.60;2.58;;;27.90;98.10;;;;;;10083684;28;20037;-70
2023/08/22 06:32:22;;;;;;;4.85;2.13;;;28.00;98.00;;;;;;10098463;28;20025;-70
2023/08/22 06:37:13;;;;;;;3.03;2.00;;;28.00;98.10;;;;;;10103261;28;20024;-73
2023/08/22 06:42:04;;;;;;;4.18;2.20;;;27.90;98.10;;;;;;10105165;28;20025;-75
2023/08/22 06:46:55;;;;;;;4.30;2.42;;;27.90;98.10;;;;;;10088043;28;20037;-75
2023/08/22 06:51:46;;;;;;;3.47;2.10;;;27.90;98.20;;;;;;10103897;28;20039;-76
2023/08/22 06:56:36;;;;;;;3.53;2.38;;;28.00;98.20;;;;;;10098798;28;20028;-73
2023/08/22 07:01:27;;;;;;;4.68;2.08;;;28.00;98.10;;;;;;10105677;28;20036;-70
2023/08/22 07:06:17;;;;;;;6.03;2.75;;;28.00;98.10;;;;;;10103372;28;20633;-71
2023/08/22 07:11:08;;;;;;;7.47;2.38;;;28.10;98.20;;;;;;10103483;28;20064;-71
2023/08/22 07:15:59;;;;;;;5.68;3.03;;;28.10;98.20;;;;;;10095243;28;20025;-70
2023/08/22 07:20:51;;;;;;;5.95;2.53;;;28.00;98.20;;;;;;10095085;28;20052;-71
2023/08/22 07:25:47;;;;;;;4.50;2.65;;;28.10;98.20;;;;;;10083608;28;20387;-72
2023/08/22 07:30:37;;;;;;;4.50;3.03;;;28.20;98.30;;;;;;10102609;28;20040;-82
2023/08/22 07:35:29;;;;;;;5.32;3.03;;;28.30;98.20;;;;;;10104162;28;20391;-82
2023/08/22 07:40:20;;;;;;;10.07;3.47;;;28.30;98.30;;;;;;10102397;28;20044;-82
2023/08/22 07:45:14;;;;;;;10.82;3.92;;;28.30;98.40;;;;;;10104327;28;20372;-82
2023/08/22 07:50:05;;;;;;;8.93;5.63;;;28.30;98.50;;;;;;10083969;28;20037;-77
2023/08/22 07:54:56;;;;;;;5.55;3.03;;;28.30;98.60;;;;;;10103720;28;20028;-70
2023/08/22 07:59:46;;;;;;;5.00;3.50;;;28.40;98.70;;;;;;10101645;28;20340;-76
2023/08/22 08:04:38;;;;;;;5.55;3.40;;;28.60;98.70;;;;;;10081864;28;20064;-78
2023/08/22 08:09:28;;;;;;;3.53;2.83;;;28.60;98.70;;;;;;10093423;28;20048;-79
2023/08/22 08:14:19;;;;;;;6.85;3.53;;;28.50;98.80;;;;;;10101601;28;20380;-80
2023/08/22 08:19:10;;;;;;;4.60;2.83;;;28.60;98.80;;;;;;10100744;28;20053;-79
2023/08/22 08:24:04;;;;;;;4.70;3.00;;;28.60;98.90;;;;;;10078626;28;20083;-77
2023/08/22 08:28:58;;;;;;;4.80;2.97;;;28.60;99.00;;;;;;10082357;28;20464;-74
2023/08/22 08:33:48;;;;;;;8.30;2.50;;;28.70;98.90;;;;;;10100801;28;20116;-77
2023/08/22 08:38:42;;;;;;;4.45;3.03;;;28.70;98.90;;;;;;10099423;28;20036;-76
2023/08/22 08:43:34;;;;;;;3.92;2.75;;;28.70;98.90;;;;;;10102542;28;20154;-76
2023/08/22 08:48:25;;;;;;;6.13;4.35;;;28.70;98.80;;;;;;10099512;28;20379;-73
2023/08/22 08:53:16;;;;;;;4.38;3.25;;;28.80;98.80;;;;;;10098473;28;20036;-74
2023/08/22 08:58:10;;;;;;;6.00;2.90;;;28.60;98.90;;;;;;10105747;28;20032;-75
2023/08/22 09:03:01;;;;;;;5.93;3.50;;;28.70;98.80;;;;;;10098315;28;20175;-74
2023/08/22 09:07:52;;;;;;;3.50;2.42;;;28.80;98.70;;;;;;10080881;28;20076;-77
2023/08/22 09:12:42;;;;;;;4.63;3.50;;;28.90;98.70;;;;;;10081267;28;20103;-77
2023/08/22 09:17:33;;;;;;;8.40;3.00;;;28.90;98.60;;;;;;10081110;28;20082;-77
2023/08/22 09:22:30;;;;;;;4.63;2.78;;;29.00;98.40;;;;;;10098414;28;20029;-77
2023/08/22 09:27:30;;;;;;;3.95;2.92;;;29.00;98.30;;;;;;10077503;28;20041;-74
2023/08/22 09:32:22;;;;;;;5.57;2.50;;;29.10;98.20;;;;;;10093970;28;20099;-75
2023/08/22 09:37:12;;;;;;;3.03;2.25;;;29.10;98.20;;;;;;10077225;28;20029;-76
2023/08/22 09:42:07;;;;;;;4.03;2.10;;;29.10;98.10;;;;;;10101606;28;20033;-78
2023/08/22 09:46:58;;;;;;;4.85;2.05;;;29.10;98.00;;;;;;10097158;28;20518;-76
2023/08/22 09:51:53;;;;;;;2.47;2.05;;;29.20;97.90;;;;;;10099852;28;20024;-75
2023/08/22 09:56:47;;;;;;;4.00;2.17;;;29.20;97.70;;;;;;10101965;28;20032;-72
2023/08/22 10:01:38;;;;;;;4.57;2.72;;;29.30;97.50;;;;;;10105687;28;20122;-72
2023/08/22 10:06:33;;;;;;;2.63;2.10;;;29.30;97.40;;;;;;10098777;28;20045;-72
2023/08/22 10:11:27;;;;;;;2.15;1.50;;;29.30;97.30;;;;;;10082899;28;20051;-76
2023/08/22 10:16:19;;;;;;;6.03;2.20;;;29.40;97.10;;;;;;10098891;28;20300;-78
2023/08/22 10:21:13;;;;;;;3.30;1.83;;;29.40;97.00;;;;;;10099575;28;20032;-76
2023/08/22 10:26:05;;;;;;;3.20;1.77;;;29.50;96.80;;;;;;10100696;28;20029;-82
2023/08/22 10:31:14;;;;;;;2.10;1.77;;;29.50;96.70;;;;;;10106303;28;20045;-77
2023/08/22 10:36:08;;;;;;;5.18;2.30;;;29.50;96.50;;;;;;10077770;28;20066;-78
2023/08/22 10:40:59;;;;;;;4.38;1.92;;;29.40;96.60;;;;;;10099120;28;20032;-77
2023/08/22 10:45:50;;;;;;;4.53;1.85;;;29.50;96.50;;;;;;10095909;28;20395;-79
2023/08/22 10:50:43;;;;;;;3.38;2.03;;;29.60;96.40;;;;;;10094480;28;20104;-79
2023/08/22 10:55:38;;;;;;;3.60;2.22;;;29.60;96.30;;;;;;10082966;28;20036;-78
2023/08/22 11:00:35;;;;;;;4.70;1.95;;;29.60;96.20;;;;;;10094585;28;20394;-77
2023/08/22 11:05:30;;;;;;;5.40;2.20;;;29.70;96.20;;;;;;10096304;28;20036;-78
2023/08/22 11:10:22;;;;;;;;;;;29.70;96.00;;;;;;10078213;28;20159;-78
2023/08/22 11:15:19;;;;;;;1.95;1.70;;;29.70;95.90;;;;;;10095728;28;19999;-77
2023/08/22 11:20:11;;;;;;;5.72;1.90;;;29.80;96.00;;;;;;10099239;28;20025;-78
2023/08/22 11:25:04;;;;;;;4.45;2.05;;;29.90;96.00;;;;;;10102469;28;20104;-78
2023/08/22 11:29:55;;;;;;;4.88;1.73;;;29.90;95.90;;;;;;10102643;28;20054;-75
2023/08/22 11:34:46;;;;;;;5.97;2.10;;;30.00;96.00;;;;;;10085034;28;20480;-78
2023/08/22 11:39:37;;;;;;;3.05;1.52;;;30.00;95.90;;;;;;10098130;28;20491;-78
2023/08/22 11:44:28;;;;;;;3.35;1.90;;;30.00;95.90;;;;;;10092111;28;20029;-79
2023/08/22 11:49:18;;;;;;;4.25;1.63;;;30.10;95.90;;;;;;10091652;28;20383;-76
2023/08/22 11:54:09;;;;;;;3.40;2.38;;;30.10;95.90;;;;;;10086259;28;20368;-75
2023/08/22 11:59:00;;;;;;;4.22;2.22;;;30.20;95.90;;;;;;10085225;28;20465;-76
2023/08/22 12:03:56;;;;;;;2.47;1.80;;;30.20;95.90;;;;;;10086253;28;20109;-77
2023/08/22 12:08:57;;;;;;;2.22;1.65;;;30.30;96.00;;;;;;10097593;28;20041;-76
2023/08/22 12:13:48;;;;;;;2.40;2.15;;;30.40;95.90;;;;;;10096023;28;20425;-75
2023/08/22 12:18:40;;;;;;;2.65;1.98;;;30.50;95.90;;;;;;10093979;28;20125;-78
2023/08/22 12:23:31;;;;;;;3.42;2.13;;;30.60;95.90;;;;;;10081343;28;20032;-76
2023/08/22 12:28:24;;;;;;;3.05;2.28;;;30.60;95.80;;;;;;10078416;28;20069;-80
2023/08/22 12:33:15;;;;;;;4.82;1.90;;;30.70;95.80;;;;;;10068350;28;20071;-72
2023/08/22 12:38:06;;;;;;;2.15;1.73;;;30.80;95.80;;;;;;10099746;28;20044;-71
2023/08/22 12:42:58;;;;;;;3.75;2.35;;;30.90;95.80;;;;;;10102313;28;20619;-72
2023/08/22 12:47:49;;;;;;;4.18;2.38;;;31.00;95.60;;;;;;10099045;28;20052;-70
2023/08/22 12:52:40;;;;;;;2.28;2.03;;;31.20;95.60;;;;;;10098630;28;20408;-77
2023/08/22 12:57:31;;;;;;;4.45;2.20;;;31.20;95.50;;;;;;10091191;28;20055;-75
2023/08/22 13:02:23;;;;;;;3.13;1.80;;;31.30;95.50;;;;;;10101079;28;20090;-70
2023/08/22 13:07:14;;;;;;;5.05;2.10;;;31.40;95.50;;;;;;10100668;28;20127;-69
2023/08/22 13:12:06;;;;;;;2.55;1.77;;;31.60;95.40;;;;;;10099220;28;20135;-74
2023/08/22 13:16:56;;;;;;;3.22;1.95;;;31.70;95.20;;;;;;10088419;28;20024;-72
2023/08/22 13:21:47;;;;;;;4.00;2.25;;;31.70;95.00;;;;;;10099396;28;20047;-73
2023/08/22 13:26:37;;;;;;;5.40;2.75;;;31.80;94.90;;;;;;10091346;28;20041;-72
2023/08/22 13:31:28;;;;;;;4.22;1.70;;;31.90;94.90;;;;;;10095857;28;20095;-70
2023/08/22 13:36:19;;;;;;;4.78;2.08;;;32.00;94.80;;;;;;10080572;28;20055;-70
2023/08/22 13:41:09;;;;;;;2.88;2.00;;;32.20;94.70;;;;;;10098497;28;20032;-71
2023/08/22 13:46:00;;;;;;;2.53;1.92;;;32.40;94.60;;;;;;10092197;28;20025;-73
2023/08/22 13:50:50;;;;;;;2.88;2.22;;;32.50;94.50;;;;;;10090411;28;20048;-73
2023/08/22 13:55:41;;;;;;;3.58;1.90;;;32.70;94.30;;;;;;10101314;28;20021;-72
2023/08/22 14:00:32;;;;;;;3.28;2.03;;;32.90;94.20;;;;;;10100867;28;20068;-71
2023/08/22 14:05:23;;;;;;;2.97;1.88;;;33.00;94.00;;;;;;10078345;28;20398;-72
2023/08/22 14:10:15;;;;;;;4.78;1.92;;;33.10;93.90;;;;;;10078631;28;20043;-73
2023/08/22 14:15:06;;;;;;;4.72;2.10;;;33.30;93.80;;;;;;10097033;28;20136;-74
2023/08/22 14:19:57;;;;;;;6.65;2.58;;;33.50;93.70;;;;;;10099267;28;20020;-77
2023/08/22 14:24:48;;;;;;;4.18;2.13;;;33.60;93.60;;;;;;10096412;28;20491;-75
2023/08/22 14:29:39;;;;;;;3.42;2.13;;;33.80;93.50;;;;;;10096206;28;20025;-72
2023/08/22 14:34:29;;;;;;;3.15;1.65;;;34.00;93.30;;;;;;10096730;28;20451;-70
2023/08/22 14:39:21;;;;;;;2.83;2.35;;;34.20;93.10;;;;;;10095721;28;20082;-73
2023/08/22 14:44:12;;;;;;;3.17;2.10;;;34.30;93.00;;;;;;10080873;28;20029;-76
2023/08/22 14:49:02;;;;;;;3.90;2.03;;;34.50;92.90;;;;;;10096915;28;20033;-72
2023/08/22 14:53:53;;;;;;;2.50;1.88;;;34.60;93.00;;;;;;10094354;28;20034;-72
2023/08/22 14:58:46;;;;;;;3.25;1.60;;;34.70;92.70;;;;;;10085444;28;20025;-73
2023/08/22 15:03:38;;;;;;;3.70;2.00;;;34.90;92.50;;;;;;10105475;28;20036;-72
2023/08/22 15:08:32;;;;;;;5.33;1.90;;;35.00;92.30;;;;;;10085556;28;20052;-73
2023/08/22 15:13:22;;;;;;;4.00;1.95;;;35.00;92.10;;;;;;10111974;28;20051;-72
2023/08/22 15:18:13;;;;;;;2.53;1.88;;;35.20;92.00;;;;;;10102987;28;20035;-72
2023/08/22 15:23:05;;;;;;;4.28;1.42;;;35.30;91.80;;;;;;10096702;28;20773;-71
2023/08/22 15:27:58;;;;;;;2.83;1.67;;;35.40;91.50;;;;;;10085160;28;20041;-76
2023/08/22 15:32:49;;;;;;;3.35;1.50;;;35.50;91.40;;;;;;10102709;28;20052;-68
2023/08/22 15:37:42;;;;;;;4.63;2.40;;;35.60;91.10;;;;;;10098819;28;20404;-70
2023/08/22 15:42:33;;;;;;;3.10;2.15;;;35.70;91.00;;;;;;10097801;28;20033;-73
2023/08/22 15:47:24;;;;;;;3.67;1.85;;;35.70;90.90;;;;;;10093292;28;20029;-70
2023/08/22 15:52:14;;;;;;;4.43;1.77;;;35.90;90.70;;;;;;10085493;28;20507;-70
2023/08/22 15:57:05;;;;;;;3.05;2.17;;;36.00;90.50;;;;;;10089540;28;20029;-74
2023/08/22 16:01:56;;;;;;;3.90;1.90;;;36.30;90.30;;;;;;10102050;28;20025;-72
2023/08/22 16:06:48;;;;;;;2.60;1.83;;;36.50;90.00;;;;;;10082062;28;20427;-72
2023/08/22 16:11:38;;;;;;;2.90;1.77;;;37.10;89.50;;;;;;10083426;28;20056;-73
2023/08/22 16:16:29;;;;;;;4.38;1.98;;;37.10;88.90;;;;;;10101095;28;20024;-72
2023/08/22 16:21:20;;;;;;;2.60;1.40;;;37.30;88.50;;;;;;10079926;28;20362;-76
2023/08/22 16:26:10;;;;;;;3.20;1.85;;;37.20;88.40;;;;;;10100601;28;20402;-70
2023/08/22 16:31:01;;;;;;;3.72;2.05;;;36.90;88.40;;;;;;10082959;28;20040;-74
2023/08/22 16:35:53;;;;;;;3.97;1.98;;;36.60;88.00;;;;;;10091453;28;20363;-72
2023/08/22 16:40:44;;;;;;;2.40;2.13;;;36.50;87.80;;;;;;10101098;28;20043;-71
2023/08/22 16:45:35;;;;;;;4.32;2.08;;;36.40;87.40;;;;;;10083579;28;20123;-72
2023/08/22 16:50:26;;;;;;;2.25;1.67;;;36.50;88.00;;;;;;10101746;28;20131;-71
2023/08/22 16:55:17;;;;;;;2.20;1.63;;;36.30;87.10;;;;;;10086963;28;20449;-73
2023/08/22 17:00:16;;;;;;;3.47;1.95;;;36.30;87.20;;;;;;10097394;28;20101;-73
2023/08/22 17:05:07;;;;;;;5.00;1.92;;;36.40;86.90;;;;;;10098460;28;20049;-74
2023/08/22 17:09:58;;;;;;;3.60;2.35;;;36.20;86.70;;;;;;10100370;28;20542;-74
2023/08/22 17:14:49;;;;;;;3.83;2.17;;;36.40;86.40;;;;;;10098644;28;20140;-71
2023/08/22 17:19:39;;;;;;;5.03;2.20;;;36.20;86.10;;;;;;10080190;28;20131;-74
2023/08/22 17:24:30;;;;;;;3.53;2.33;;;36.20;86.30;;;;;;10081496;28;20032;-73
2023/08/22 17:29:21;;;;;;;4.10;1.90;;;35.80;86.10;;;;;;10090370;28;20037;-75
2023/08/22 17:34:13;;;;;;;2.85;2.00;;;35.40;86.30;;;;;;10082526;28;20407;-73
2023/08/22 17:39:04;;;;;;;3.83;2.55;;;35.10;87.30;;;;;;10097751;28;20095;-73
2023/08/22 17:43:54;;;;;;;3.42;2.00;;;34.90;86.70;;;;;;10098034;28;20545;-73
2023/08/22 17:48:45;;;;;;;2.67;2.20;;;34.80;86.50;;;;;;10097981;28;20548;-74
2023/08/22 17:53:36;;;;;;;5.70;2.45;;;34.70;86.80;;;;;;10090606;28;20037;-74
2023/08/22 17:58:27;;;;;;;4.82;2.50;;;34.40;87.10;;;;;;10096293;28;20116;-74
2023/08/22 18:03:19;;;;;;;2.20;1.92;;;34.30;87.30;;;;;;10098130;28;20456;-73
2023/08/22 18:08:09;;;;;;;6.10;2.20;;;34.30;87.10;;;;;;10097516;28;20041;-72
2023/08/22 18:13:00;;;;;;;3.92;1.88;;;34.20;87.00;;;;;;10079250;28;20506;-72
2023/08/22 18:17:50;;;;;;;2.65;1.70;;;34.10;87.10;;;;;;10079736;28;20140;-73
2023/08/22 18:22:41;;;;;;;4.80;1.90;;;34.10;87.00;;;;;;10098685;28;20025;-75
2023/08/22 18:27:32;;;;;;;4.15;2.15;;;34.00;86.80;;;;;;10096440;28;20032;-73
2023/08/22 18:32:23;;;;;;;3.88;2.00;;;34.00;86.90;;;;;;10098692;28;20128;-74
2023/08/22 18:37:13;;;;;;;6.05;1.85;;;34.00;86.70;;;;;;10097925;28;20104;-74
2023/08/22 18:42:04;;;;;;;4.10;2.00;;;34.00;87.20;;;;;;10099133;28;20036;-70
2023/08/22 18:46:58;;;;;;;3.33;2.30;;;33.80;86.60;;;;;;10096574;28;20028;-70
2023/08/22 18:51:49;;;;;;;4.68;2.13;;;33.70;87.00;;;;;;10078159;28;20037;-74
2023/08/22 18:56:43;;;;;;;4.03;2.38;;;33.70;86.90;;;;;;10078930;28;20029;-77
2023/08/22 19:01:37;;;;;;;4.00;2.08;;;33.40;87.10;;;;;;10076653;28;20116;-77
2023/08/22 19:06:27;;;;;;;4.35;2.38;;;33.40;87.30;;;;;;10097342;28;20125;-76
2023/08/22 19:11:18;;;;;;;7.93;2.65;;;33.40;87.20;;;;;;10094135;28;20140;-78
2023/08/22 19:16:09;;;;;;;2.75;2.20;;;33.40;86.70;;;;;;10095872;28;20021;-75
2023/08/22 19:21:00;;;;;;;3.78;2.13;;;33.30;87.00;;;;;;10096054;28;20033;-74
2023/08/22 19:25:50;;;;;;;5.75;2.42;;;33.20;86.90;;;;;;10096362;28;20078;-77
2023/08/22 19:30:41;;;;;;;3.78;2.10;;;33.10;87.00;;;;;;10096227;28;20060;-76
2023/08/22 19:35:39;;;;;;;3.95;2.00;;;33.10;86.70;;;;;;10080013;28;20044;-72
2023/08/22 19:40:30;;;;;;;4.97;1.90;;;33.10;86.70;;;;;;10098797;28;20105;-74
2023/08/22 19:45:21;;;;;;;4.75;1.90;;;33.00;86.70;;;;;;10105439;28;20185;-74
2023/08/22 19:50:12;;;;;;;5.03;1.90;;;33.00;87.00;;;;;;10105815;28;20037;-73
2023/08/22 19:55:04;;;;;;;2.40;1.63;;;32.80;87.50;;;;;;10092622;28;20311;-75
2023/08/22 19:59:55;;;;;;;5.40;1.83;;;32.80;87.30;;;;;;10104417;28;20064;-72
2023/08/22 20:04:48;;;;;;;3.05;1.70;;;32.60;87.60;;;;;;10087320;28;20475;-76
2023/08/22 20:09:39;;;;;;;;;;;32.60;87.70;;;;;;10075911;28;20044;-74
2023/08/22 20:14:30;;;;;;;2.10;1.65;;;32.50;87.80;;;;;;10080481;28;20468;-69
2023/08/22 20:19:21;;;;;;;5.20;1.95;;;32.40;87.60;;;;;;10100225;28;20086;-68
2023/08/22 20:24:14;;;;;;;3.38;2.78;;;32.50;87.20;;;;;;10100768;28;20033;-76
2023/08/22 20:29:05;;;;;;;3.50;3.05;;;32.40;87.30;;;;;;10095817;28;20045;-78
2023/08/22 20:33:55;;;;;;;3.65;1.88;;;32.40;87.70;;;;;;10099809;28;20044;-82
2023/08/22 20:38:46;;;;;;;4.03;2.08;;;32.20;88.30;;;;;;10104219;28;20033;-76
2023/08/22 20:43:37;;;;;;;3.03;1.90;;;32.10;89.20;;;;;;10110625;28;20025;-84
2023/08/22 20:48:28;;;;;;;4.22;2.22;;;32.00;88.60;;;;;;10103833;28;20044;-76
2023/08/22 20:53:18;;;;;;;5.43;3.10;;;31.90;88.90;;;;;;10101731;28;20037;-75
2023/08/22 20:58:09;;;;;;;7.65;2.28;;;32.00;88.50;;;;;;10081682;28;20032;-79
2023/08/22 21:03:00;;;;;;;2.92;1.80;;;31.90;88.80;;;;;;10099605;28;20100;-77
2023/08/22 21:07:51;;;;;;;7.85;1.88;;;31.90;88.60;;;;;;10099525;28;20033;-77
2023/08/22 21:12:41;;;;;;;4.05;1.63;;;31.80;88.80;;;;;;10104540;28;20044;-78
2023/08/22 21:17:32;;;;;;;2.17;1.67;;;31.80;88.90;;;;;;10095765;28;20445;-82
2023/08/22 21:22:22;;;;;;;3.08;1.10;;;31.60;88.70;;;;;;10099325;28;20033;-80
2023/08/22 21:27:13;;;;;;;2.35;1.50;;;31.50;88.80;;;;;;10080506;28;20438;-81
2023/08/22 21:32:07;;;;;;;4.75;1.50;;;31.50;88.80;;;;;;10102090;28;20495;-82
2023/08/22 21:36:58;;;;;;;5.50;2.10;;;31.30;88.90;;;;;;10080801;28;20509;-79
2023/08/22 21:41:49;;;;;;;2.53;1.30;;;31.30;88.80;;;;;;10099657;28;20040;-80
2023/08/22 21:46:40;;;;;;;2.05;1.45;;;31.30;88.80;;;;;;10103292;28;20029;-82
2023/08/22 21:51:30;;;;;;;2.67;1.48;;;31.20;88.90;;;;;;10108862;28;20346;-80
2023/08/22 21:56:21;;;;;;;5.68;1.48;;;31.10;89.00;;;;;;10090256;28;20036;-79
2023/08/22 22:01:13;;;;;;;5.78;1.45;;;31.10;89.00;;;;;;10097668;28;20021;-78
2023/08/22 22:06:04;;;;;;;2.28;1.50;;;31.00;89.10;;;;;;10097135;28;20037;-80
2023/08/22 22:10:54;;;;;;;3.03;1.65;;;31.00;89.20;;;;;;10097192;28;20151;-80
2023/08/22 22:15:45;;;;;;;1.98;1.42;;;31.00;89.30;;;;;;10097415;28;20410;-79
2023/08/22 22:20:36;;;;;;;2.38;1.30;;;30.90;89.50;;;;;;10097400;28;20206;-80
2023/08/22 22:25:26;;;;;;;4.80;1.80;;;30.90;89.50;;;;;;10096867;28;20445;-79
2023/08/22 22:30:17;;;;;;;3.25;1.65;;;30.90;89.70;;;;;;10099388;28;20097;-82
2023/08/22 22:35:08;;;;;;;2.05;1.40;;;30.90;89.80;;;;;;10088398;28;20083;-82
2023/08/22 22:39:59;;;;;;;4.15;1.52;;;30.80;90.00;;;;;;10094961;28;20052;-81
2023/08/22 22:44:49;;;;;;;4.28;1.90;;;30.80;90.00;;;;;;10101338;28;20040;-81
2023/08/22 22:49:40;;;;;;;3.72;1.52;;;30.70;90.10;;;;;;10081522;28;20041;-82
2023/08/22 22:54:31;;;;;;;2.38;1.58;;;30.60;90.20;;;;;;10076204;28;20033;-82
2023/08/22 22:59:21;;;;;;;3.08;1.98;;;30.60;90.20;;;;;;10098846;28;20060;-83
2023/08/22 23:04:12;;;;;;;4.97;1.63;;;30.70;90.20;;;;;;10100420;28;20033;-82
2023/08/22 23:09:04;;;;;;;5.63;1.70;;;30.60;90.40;;;;;;10095930;28;20041;-83
2023/08/22 23:13:55;;;;;;;5.03;2.22;;;30.50;90.50;;;;;;10101503;28;20112;-85
2023/08/22 23:18:46;;;;;;;3.15;2.00;;;30.40;90.70;;;;;;10105248;28;20139;-81
2023/08/22 23:23:36;;;;;;;3.72;2.00;;;30.30;90.80;;;;;;10103098;28;20063;-83
2023/08/22 23:28:27;;;;;;;4.15;1.80;;;30.20;90.80;;;;;;10103234;28;20835;-82
2023/08/22 23:33:18;;;;;;;3.83;1.88;;;30.20;91.00;;;;;;10103113;28;20112;-83
2023/08/22 23:38:08;;;;;;;3.90;1.92;;;30.10;91.20;;;;;;10102498;28;20029;-84
2023/08/22 23:42:59;;;;;;;3.88;2.13;;;30.20;91.30;;;;;;10104795;28;20036;-83
2023/08/22 23:47:50;;;;;;;2.22;1.85;;;30.20;91.30;;;;;;10102912;28;20041;-86
2023/08/22 23:52:41;;;;;;;3.53;2.20;;;30.20;91.40;;;;;;10099663;28;20122;-86
2023/08/22 23:57:32;;;;;;;3.65;1.83;;;30.10;91.50;;;;;;10094304;28;20033;-86
